createdAt,value
2018-06-04T00:02:24.324Z,15.07
2018-06-04T00:04:53.003Z,19.23
2018-06-04T00:07:21.911Z,18.83
2018-06-04T00:09:50.671Z,16.97
2018-06-04T00:12:19.379Z,16.70
2018-06-04T00:14:48.061Z,16.37
2018-06-04T00:17:17.507Z,15.30
2018-06-04T00:19:46.203Z,18.63
2018-06-04T00:22:14.952Z,21.17
2018-06-04T00:24:43.682Z,18.73
2018-06-04T00:27:12.408Z,20.33
2018-06-04T00:29:41.125Z,21.60
2018-06-04T00:32:09.813Z,20.63
2018-06-04T00:34:38.676Z,17.20
2018-06-04T00:37:07.400Z,14.47
2018-06-04T00:39:36.091Z,14.07
2018-06-04T00:42:04.813Z,12.40
2018-06-04T00:44:33.485Z,13.73
2018-06-04T00:47:02.543Z,15.07
2018-06-04T00:49:30.864Z,14.53
2018-06-04T00:51:59.557Z,18.33
2018-06-04T00:54:28.243Z,14.70
2018-06-04T00:56:56.921Z,16.53
2018-06-04T00:59:25.623Z,14.57
2018-06-04T01:01:55.277Z,13.97
2018-06-04T01:04:23.596Z,17.03
2018-06-04T01:06:52.275Z,16.33
2018-06-04T01:09:21.247Z,14.23
2018-06-04T01:11:49.942Z,17.73
2018-06-04T01:14:18.702Z,17.87
2018-06-04T01:16:47.421Z,19.07
2018-06-04T01:19:16.130Z,21.77
2018-06-04T01:21:44.871Z,17.03
2018-06-04T01:24:13.617Z,19.97
2018-06-04T01:26:42.364Z,17.73
2018-06-04T01:29:11.110Z,19.87
2018-06-04T01:31:39.831Z,21.23
2018-06-04T01:34:08.213Z,20.67
2018-06-04T01:36:36.932Z,21.37
2018-06-04T01:39:07.890Z,20.77
2018-06-04T01:41:36.683Z,21.60
2018-06-04T01:44:05.510Z,24.67
2018-06-04T01:46:34.254Z,21.13
2018-06-04T01:49:02.955Z,23.13
2018-06-04T01:51:31.754Z,21.80
2018-06-04T01:54:00.444Z,21.83
2018-06-04T01:56:29.122Z,18.00
2018-06-04T01:58:58.101Z,17.77
2018-06-04T02:01:26.958Z,23.83
2018-06-04T02:03:55.687Z,22.80
2018-06-04T02:06:24.422Z,20.53
2018-06-04T02:08:53.110Z,20.43
2018-06-04T02:11:21.821Z,19.80
2018-06-04T02:13:50.505Z,25.47
2018-06-04T02:16:19.234Z,20.60
2018-06-04T02:18:48.017Z,23.40
2018-06-04T02:21:16.700Z,25.60
2018-06-04T02:23:45.418Z,27.17
2018-06-04T02:26:14.317Z,23.17
2018-06-04T02:28:43.062Z,24.00
2018-06-04T02:31:11.802Z,24.03
2018-06-04T02:33:40.526Z,26.00
2018-06-04T02:36:09.248Z,21.87
2018-06-04T02:38:37.928Z,23.07
2018-06-04T02:41:06.692Z,25.67
2018-06-04T02:43:35.421Z,26.00
2018-06-04T02:46:04.180Z,23.10
2018-06-04T02:48:32.932Z,22.83
2018-06-04T02:51:02.104Z,23.03
2018-06-04T02:53:30.451Z,22.47
2018-06-04T02:55:59.149Z,21.73
2018-06-04T02:58:32.180Z,22.80
2018-06-04T03:01:00.878Z,20.20
2018-06-04T03:03:29.599Z,21.50
2018-06-04T03:05:58.271Z,20.73
2018-06-04T03:08:26.987Z,23.43
2018-06-04T03:10:55.698Z,22.43
2018-06-04T03:13:24.420Z,24.03
2018-06-04T03:15:53.111Z,19.87
2018-06-04T03:18:21.796Z,22.00
2018-06-04T03:20:50.561Z,22.67
2018-06-04T03:23:19.259Z,25.10
2018-06-04T03:25:47.946Z,25.40
2018-06-04T03:28:16.619Z,24.00
2018-06-04T03:30:45.323Z,20.33
2018-06-04T03:33:14.009Z,26.60
2018-06-04T03:35:42.709Z,34.33
2018-06-04T03:38:11.461Z,36.63
2018-06-04T03:40:40.152Z,26.70
2018-06-04T03:43:08.889Z,17.77
2018-06-04T03:45:37.593Z,22.47
2018-06-04T03:48:06.329Z,18.97
2018-06-04T03:50:34.990Z,20.77
2018-06-04T03:53:03.757Z,23.33
2018-06-04T03:55:32.443Z,27.00
2018-06-04T03:58:01.197Z,26.17
2018-06-04T04:00:29.933Z,27.20
2018-06-04T04:02:58.717Z,28.33
2018-06-04T04:05:27.407Z,23.27
2018-06-04T04:07:56.130Z,23.10
2018-06-04T04:10:24.882Z,21.03
2018-06-04T04:12:53.618Z,24.27
2018-06-04T04:15:22.337Z,18.30
2018-06-04T04:17:51.022Z,20.97
2018-06-04T04:20:19.750Z,21.73
2018-06-04T04:22:48.443Z,19.80
2018-06-04T04:25:16.820Z,20.90
2018-06-04T04:27:45.801Z,21.33
2018-06-04T04:30:14.466Z,27.10
2018-06-04T04:32:43.149Z,29.77
2018-06-04T04:35:11.933Z,37.17
2018-06-04T04:37:40.681Z,32.97
2018-06-04T04:40:09.376Z,29.37
2018-06-04T04:42:38.045Z,32.27
2018-06-04T04:45:06.798Z,26.50
2018-06-04T04:47:35.523Z,20.90
2018-06-04T04:50:04.271Z,24.63
2018-06-04T04:52:32.932Z,20.33
2018-06-04T04:55:02.036Z,23.30
2018-06-04T04:57:30.694Z,27.37
2018-06-04T04:59:59.420Z,29.07
2018-06-04T05:02:28.079Z,25.00
2018-06-04T05:04:56.764Z,27.70
2018-06-04T05:07:25.682Z,31.63
2018-06-04T05:09:54.530Z,33.17
2018-06-04T05:12:23.245Z,37.87
2018-06-04T05:14:51.898Z,33.37
2018-06-04T05:17:20.604Z,34.17
2018-06-04T05:19:49.394Z,30.03
2018-06-04T05:22:18.125Z,29.43
2018-06-04T05:24:46.846Z,37.63
2018-06-04T05:27:15.957Z,47.07
2018-06-04T05:29:44.673Z,44.83
2018-06-04T05:32:13.345Z,45.70
2018-06-04T05:34:42.045Z,47.90
2018-06-04T05:37:10.777Z,41.20
2018-06-04T05:39:39.481Z,45.73
2018-06-04T05:42:08.161Z,52.20
2018-06-04T05:44:36.975Z,58.50
2018-06-04T05:47:05.775Z,61.23
2018-06-04T05:49:35.499Z,60.53
2018-06-04T05:52:04.258Z,61.33
2018-06-04T05:54:32.959Z,62.63
2018-06-04T05:57:01.627Z,62.87
2018-06-04T05:59:30.312Z,58.47
2018-06-04T06:01:59.002Z,54.43
2018-06-04T06:04:27.699Z,55.13
2018-06-04T06:06:56.577Z,59.13
2018-06-04T06:09:25.336Z,61.27
2018-06-04T06:11:54.023Z,59.50
2018-06-04T06:14:22.729Z,58.53
2018-06-04T06:16:51.366Z,55.53
2018-06-04T06:19:20.030Z,57.67
2018-06-04T06:21:48.802Z,50.00
2018-06-04T06:24:17.571Z,51.67
2018-06-04T06:26:46.285Z,54.50
2018-06-04T06:29:14.948Z,51.27
2018-06-04T06:31:44.146Z,42.27
2018-06-04T06:34:12.828Z,50.20
2018-06-04T06:36:41.543Z,40.30
2018-06-04T06:39:10.316Z,40.53
2018-06-04T06:41:39.108Z,48.23
2018-06-04T06:44:07.801Z,35.05
2018-06-04T06:46:36.496Z,40.60
2018-06-04T06:49:05.220Z,40.38
2018-06-04T06:51:33.903Z,44.05
2018-06-04T06:54:02.609Z,38.60
2018-06-04T06:56:31.350Z,36.83
2018-06-04T06:59:00.273Z,42.17
2018-06-04T07:01:28.883Z,39.10
2018-06-04T07:03:57.542Z,36.60
2018-06-04T07:06:26.239Z,36.35
2018-06-04T07:08:54.952Z,34.75
2018-06-04T07:11:23.624Z,34.53
2018-06-04T07:13:52.287Z,33.28
2018-06-04T07:16:20.990Z,36.77
2018-06-04T07:18:49.697Z,40.30
2018-06-04T07:21:18.407Z,34.78
2018-06-04T07:23:47.052Z,30.97
2018-06-04T07:26:15.786Z,28.92
2018-06-04T07:28:44.488Z,28.27
2018-06-04T07:31:13.149Z,27.58
2018-06-04T07:33:41.859Z,27.45
2018-06-04T07:36:12.260Z,28.70
2018-06-04T07:38:41.372Z,27.73
2018-06-04T07:41:10.074Z,28.00
2018-06-04T07:43:38.721Z,28.77
2018-06-04T07:46:07.479Z,29.95
2018-06-04T07:48:36.207Z,39.13
2018-06-04T07:51:04.940Z,29.57
2018-06-04T07:53:33.620Z,31.82
2018-06-04T07:56:02.321Z,29.30
2018-06-04T07:58:30.997Z,34.43
2018-06-04T08:00:59.683Z,32.65
2018-06-04T08:03:28.375Z,31.17
2018-06-04T08:05:57.267Z,29.90
2018-06-04T08:08:25.959Z,31.30
2018-06-04T08:10:54.801Z,32.70
2018-06-04T08:13:23.541Z,31.57
2018-06-04T08:15:52.214Z,30.97
2018-06-04T08:18:20.914Z,29.87
2018-06-04T08:20:49.620Z,34.95
2018-06-04T08:23:18.341Z,32.95
2018-06-04T08:25:47.092Z,30.17
2018-06-04T08:28:15.765Z,36.60
2018-06-04T08:30:44.450Z,30.68
2018-06-04T08:33:13.158Z,32.65
2018-06-04T08:35:41.980Z,37.70
2018-06-04T08:38:10.659Z,34.80
2018-06-04T08:40:39.349Z,32.38
2018-06-04T08:43:08.029Z,34.60
2018-06-04T08:45:36.772Z,36.35
2018-06-04T08:48:05.477Z,37.15
2018-06-04T08:50:34.183Z,38.17
2018-06-04T08:53:02.862Z,37.28
2018-06-04T08:55:31.583Z,44.35
2018-06-04T08:58:00.228Z,39.58
2018-06-04T09:00:28.900Z,37.90
2018-06-04T09:02:57.783Z,34.92
2018-06-04T09:05:26.553Z,33.30
2018-06-04T09:07:55.245Z,28.83
2018-06-04T09:10:23.938Z,37.33
2018-06-04T09:12:52.648Z,39.13
2018-06-04T09:15:21.329Z,35.03
2018-06-04T09:17:49.983Z,31.37
2018-06-04T09:20:18.702Z,31.48
2018-06-04T09:22:47.459Z,33.23
2018-06-04T09:25:16.155Z,34.73
2018-06-04T09:27:44.831Z,31.77
2018-06-04T09:30:13.559Z,31.35
2018-06-04T09:32:42.263Z,33.38
2018-06-04T09:35:10.955Z,29.95
2018-06-04T09:37:39.643Z,35.40
2018-06-04T09:40:08.375Z,30.92
2018-06-04T09:42:37.453Z,35.63
2018-06-04T09:45:06.149Z,31.97
2018-06-04T09:47:34.885Z,34.88
2018-06-04T09:50:03.604Z,33.20
2018-06-04T09:52:32.274Z,31.42
2018-06-04T09:55:00.944Z,38.67
2018-06-04T09:57:29.659Z,39.15
2018-06-04T09:59:58.365Z,34.23
2018-06-04T10:02:27.057Z,42.67
2018-06-04T10:04:55.782Z,45.95
2018-06-04T10:07:24.479Z,39.20
2018-06-04T10:09:53.185Z,42.73
2018-06-04T10:12:21.906Z,41.15
2018-06-04T10:14:50.559Z,37.85
2018-06-04T10:17:19.428Z,39.80
2018-06-04T10:19:48.127Z,46.58
2018-06-04T10:22:16.862Z,46.65
2018-06-04T10:24:45.566Z,57.05
2018-06-04T10:27:14.255Z,42.80
2018-06-04T10:29:42.931Z,49.18
2018-06-04T10:32:17.862Z,40.20
2018-06-04T10:34:46.545Z,43.23
2018-06-04T10:37:15.231Z,43.17
2018-06-04T10:39:43.890Z,39.23
2018-06-04T10:42:12.569Z,43.30
2018-06-04T10:44:41.221Z,36.20
2018-06-04T10:47:09.904Z,42.43
2018-06-04T10:49:38.596Z,39.88
2018-06-04T10:52:07.828Z,40.15
2018-06-04T10:54:36.543Z,35.65
2018-06-04T10:57:05.266Z,36.20
2018-06-04T10:59:33.978Z,34.15
2018-06-04T11:02:02.686Z,38.17
2018-06-04T11:04:31.522Z,42.75
2018-06-04T11:07:00.179Z,39.15
2018-06-04T11:09:28.875Z,40.38
2018-06-04T11:11:57.560Z,37.10
2018-06-04T11:14:26.290Z,32.53
2018-06-04T11:16:54.951Z,36.28
2018-06-04T11:19:23.627Z,36.17
2018-06-04T11:21:52.339Z,37.70
2018-06-04T11:24:21.190Z,30.23
2018-06-04T11:26:49.538Z,32.00
2018-06-04T11:29:18.327Z,30.23
2018-06-04T11:31:47.027Z,31.57
2018-06-04T11:34:15.700Z,32.00
2018-06-04T11:36:44.347Z,30.92
2018-06-04T11:39:12.694Z,25.37
2018-06-04T11:41:41.390Z,27.27
2018-06-04T11:44:10.106Z,31.25
2018-06-04T11:46:38.821Z,33.75
2018-06-04T11:49:07.505Z,27.77
2018-06-04T11:51:36.269Z,31.87
2018-06-04T11:54:04.986Z,28.60
2018-06-04T11:56:33.675Z,26.90
2018-06-04T11:59:02.326Z,26.57
2018-06-04T12:01:31.091Z,31.93
2018-06-04T12:03:59.777Z,39.00
2018-06-04T12:06:28.490Z,36.38
2018-06-04T12:08:57.209Z,38.10
2018-06-04T12:11:26.297Z,31.20
2018-06-04T12:13:55.040Z,30.23
2018-06-04T12:16:23.769Z,32.58
2018-06-04T12:18:52.427Z,28.38
2018-06-04T12:21:21.088Z,32.28
2018-06-04T12:23:49.932Z,26.97
2018-06-04T12:26:18.617Z,29.85
2018-06-04T12:28:47.665Z,25.10
2018-06-04T12:31:16.342Z,28.98
2018-06-04T12:33:45.066Z,32.48
2018-06-04T12:36:13.749Z,28.05
2018-06-04T12:38:42.456Z,35.28
2018-06-04T12:41:11.203Z,32.17
2018-06-04T12:43:39.907Z,34.45
2018-06-04T12:46:08.597Z,32.65
2018-06-04T12:48:37.419Z,30.95
2018-06-04T12:51:06.140Z,32.08
2018-06-04T12:53:34.819Z,34.65
2018-06-04T12:56:03.510Z,33.80
2018-06-04T12:58:32.344Z,37.38
2018-06-04T13:01:01.232Z,32.10
2018-06-04T13:03:29.954Z,31.68
2018-06-04T13:05:58.690Z,37.25
2018-06-04T13:08:27.386Z,34.80
2018-06-04T13:10:56.079Z,32.95
2018-06-04T13:13:24.825Z,26.23
2018-06-04T13:15:53.520Z,30.17
2018-06-04T13:18:22.266Z,31.73
2018-06-04T13:20:51.383Z,35.28
2018-06-04T13:23:20.068Z,36.10
2018-06-04T13:25:48.798Z,31.52
2018-06-04T13:28:17.520Z,31.48
2018-06-04T13:30:46.241Z,32.23
2018-06-04T13:33:25.284Z,34.95
2018-06-04T13:36:05.261Z,31.52
2018-06-04T13:38:34.266Z,26.77
2018-06-04T13:41:02.957Z,28.27
2018-06-04T13:43:31.822Z,23.27
2018-06-04T13:46:00.682Z,23.00
2018-06-04T13:48:29.417Z,26.23
2018-06-04T13:50:58.119Z,24.07
2018-06-04T13:53:26.852Z,27.65
2018-06-04T13:55:55.604Z,26.57
2018-06-04T13:58:24.334Z,24.98
2018-06-04T14:00:53.105Z,24.12
2018-06-04T14:03:21.826Z,20.92
2018-06-04T14:05:50.496Z,25.80
2018-06-04T14:08:19.253Z,23.35
2018-06-04T14:10:48.275Z,22.05
2018-06-04T14:13:16.959Z,16.93
2018-06-04T14:15:45.660Z,20.60
2018-06-04T14:18:14.396Z,20.17
2018-06-04T14:20:43.094Z,19.82
2018-06-04T14:23:15.164Z,21.85
2018-06-04T14:25:43.957Z,23.73
2018-06-04T14:28:12.264Z,22.07
2018-06-04T14:30:40.959Z,17.42
2018-06-04T14:33:09.652Z,18.73
2018-06-04T14:35:38.364Z,17.37
2018-06-04T14:38:07.308Z,15.90
2018-06-04T14:40:36.030Z,14.03
2018-06-04T14:43:04.742Z,24.80
2018-06-04T14:45:33.467Z,22.50
2018-06-04T14:48:02.209Z,23.27
2018-06-04T14:50:30.917Z,20.50
2018-06-04T14:52:59.800Z,18.77
2018-06-04T14:55:28.483Z,19.57
2018-06-04T14:57:57.182Z,21.65
2018-06-04T15:00:25.904Z,21.05
2018-06-04T15:02:54.596Z,20.88
2018-06-04T15:05:23.248Z,23.02
2018-06-04T15:07:51.540Z,21.97
2018-06-04T15:10:20.236Z,21.65
2018-06-04T15:12:48.991Z,19.82
2018-06-04T15:15:17.661Z,19.27
2018-06-04T15:17:46.354Z,19.23
2018-06-04T15:20:15.107Z,17.50
2018-06-04T15:22:43.766Z,22.07
2018-06-04T15:25:12.466Z,23.80
2018-06-04T15:27:41.206Z,23.38
2018-06-04T15:30:09.899Z,20.25
2018-06-04T15:32:38.642Z,21.80
2018-06-04T15:35:07.335Z,21.68
2018-06-04T15:37:36.116Z,20.75
2018-06-04T15:40:04.489Z,16.37
2018-06-04T15:42:33.180Z,20.80
2018-06-04T15:45:02.103Z,22.45
2018-06-04T15:47:30.801Z,21.33
2018-06-04T15:49:59.608Z,21.52
2018-06-04T15:52:28.306Z,18.73
2018-06-04T15:54:57.019Z,19.45
2018-06-04T15:57:25.737Z,21.15
2018-06-04T15:59:54.430Z,19.35
2018-06-04T16:02:23.106Z,20.72
2018-06-04T16:04:51.807Z,20.20
2018-06-04T16:07:21.070Z,19.05
2018-06-04T16:09:49.881Z,16.27
2018-06-04T16:12:18.572Z,18.42
2018-06-04T16:14:47.288Z,15.72
2018-06-04T16:17:16.036Z,17.85
2018-06-04T16:19:44.747Z,14.85
2018-06-04T16:22:27.900Z,17.12
2018-06-04T16:24:56.604Z,19.50
2018-06-04T16:27:25.262Z,15.18
2018-06-04T16:29:53.938Z,14.93
2018-06-04T16:32:22.625Z,16.52
2018-06-04T16:34:51.338Z,15.80
2018-06-04T16:37:20.236Z,15.00
2018-06-04T16:39:48.898Z,16.48
2018-06-04T16:42:17.617Z,15.13
2018-06-04T16:44:46.300Z,17.73
2018-06-04T16:47:14.965Z,16.27
2018-06-04T16:49:43.669Z,17.20
2018-06-04T16:52:12.334Z,16.00
2018-06-04T16:54:41.011Z,15.98
2018-06-04T16:57:09.722Z,18.57
2018-06-04T16:59:38.527Z,15.48
2018-06-04T17:02:07.177Z,16.65
2018-06-04T17:04:35.863Z,20.88
2018-06-04T17:07:04.622Z,16.35
2018-06-04T17:09:39.585Z,14.55
2018-06-04T17:12:08.239Z,16.10
2018-06-04T17:14:36.896Z,19.20
2018-06-04T17:17:05.695Z,14.50
2018-06-04T17:19:34.539Z,17.35
2018-06-04T17:22:03.192Z,15.45
2018-06-04T17:24:31.885Z,15.75
2018-06-04T17:27:00.648Z,15.53
2018-06-04T17:29:29.350Z,17.45
2018-06-04T17:31:58.020Z,16.97
2018-06-04T17:34:26.844Z,16.07
2018-06-04T17:36:55.511Z,16.67
2018-06-04T17:39:24.162Z,17.65
2018-06-04T17:41:52.861Z,16.20
2018-06-04T17:44:21.504Z,15.93
2018-06-04T17:46:50.244Z,13.78
2018-06-04T17:49:18.911Z,17.20
2018-06-04T17:51:47.995Z,17.27
2018-06-04T17:54:16.724Z,16.67
2018-06-04T17:56:45.380Z,18.67
2018-06-04T17:59:14.073Z,17.67
2018-06-04T18:01:42.373Z,16.97
2018-06-04T18:04:11.074Z,19.32
2018-06-04T18:06:39.747Z,19.07
2018-06-04T18:09:09.488Z,26.15
2018-06-04T18:11:38.226Z,19.50
2018-06-04T18:14:06.862Z,20.40
2018-06-04T18:16:35.637Z,18.85
2018-06-04T18:19:04.330Z,19.40
2018-06-04T18:21:33.048Z,20.30
2018-06-04T18:24:01.387Z,17.92
2018-06-04T18:26:30.093Z,20.75
2018-06-04T18:28:59.488Z,22.32
2018-06-04T18:31:28.202Z,21.48
2018-06-04T18:33:57.028Z,24.27
2018-06-04T18:36:25.938Z,20.80
2018-06-04T18:38:54.696Z,18.82
2018-06-04T18:41:23.393Z,18.80
2018-06-04T18:43:52.141Z,19.55
2018-06-04T18:46:20.848Z,16.42
2018-06-04T18:48:49.668Z,21.82
2018-06-04T18:51:18.344Z,20.62
2018-06-04T18:53:47.022Z,20.10
2018-06-04T18:56:15.782Z,17.67
2018-06-04T18:58:44.473Z,20.88
2018-06-04T19:01:13.200Z,18.27
2018-06-04T19:03:41.877Z,19.48
2018-06-04T19:06:11.138Z,22.02
2018-06-04T19:08:39.889Z,19.55
2018-06-04T19:11:08.819Z,19.40
2018-06-04T19:13:37.457Z,23.07
2018-06-04T19:16:06.168Z,23.10
2018-06-04T19:18:34.858Z,20.40
2018-06-04T19:21:03.629Z,20.92
2018-06-04T19:23:32.537Z,20.65
2018-06-04T19:26:01.331Z,20.97
2018-06-04T19:28:30.074Z,19.00
2018-06-04T19:30:58.891Z,20.35
2018-06-04T19:33:27.270Z,19.65
2018-06-04T19:35:56.025Z,20.95
2018-06-04T19:38:24.410Z,20.03
2018-06-04T19:40:53.111Z,19.37
2018-06-04T19:43:21.832Z,19.03
2018-06-04T19:45:50.546Z,18.57
2018-06-04T19:48:19.246Z,17.82
2018-06-04T19:50:48.096Z,16.97
2018-06-04T19:53:16.845Z,17.30
2018-06-04T19:55:45.546Z,18.90
2018-06-04T19:58:14.681Z,16.60
2018-06-04T20:00:43.830Z,16.57
2018-06-04T20:03:12.987Z,16.35
2018-06-04T20:05:41.949Z,18.37
2018-06-04T20:08:10.738Z,14.53
2018-06-04T20:10:39.430Z,15.73
2018-06-04T20:13:08.710Z,14.93
2018-06-04T20:15:37.502Z,13.73
2018-06-04T20:18:06.374Z,14.80
2018-06-04T20:20:35.111Z,16.37
2018-06-04T20:23:03.787Z,17.20
2018-06-04T20:25:32.842Z,16.30
2018-06-04T20:28:01.741Z,15.27
2018-06-04T20:30:30.477Z,17.43
2018-06-04T20:32:59.173Z,18.47
2018-06-04T20:35:27.891Z,20.07
2018-06-04T20:37:56.611Z,19.43
2018-06-04T20:40:25.446Z,18.17
2018-06-04T20:42:53.745Z,19.60
2018-06-04T20:45:22.411Z,20.73
2018-06-04T20:47:51.112Z,19.03
2018-06-04T20:50:20.090Z,19.80
2018-06-04T20:52:48.834Z,21.53
2018-06-04T20:55:17.551Z,20.37
2018-06-04T20:57:46.222Z,21.57
2018-06-04T21:00:14.929Z,22.33
2018-06-04T21:02:43.643Z,19.67
2018-06-04T21:05:12.345Z,23.40
2018-06-04T21:07:41.051Z,21.90
2018-06-04T21:10:09.388Z,21.93
2018-06-04T21:12:38.064Z,21.73
2018-06-04T21:15:06.837Z,22.43
2018-06-04T21:17:35.569Z,22.50
2018-06-04T21:20:04.332Z,22.37
2018-06-04T21:22:33.074Z,21.33
2018-06-04T21:25:01.860Z,21.13
2018-06-04T21:27:30.555Z,20.67
2018-06-04T21:29:59.288Z,20.13
2018-06-04T21:32:27.935Z,20.03
2018-06-04T21:34:56.656Z,21.80
2018-06-04T21:37:25.322Z,21.48
2018-06-04T21:39:54.004Z,21.02
2018-06-04T21:42:22.337Z,22.95
2018-06-04T21:44:51.143Z,22.02
2018-06-04T21:47:19.590Z,22.27
2018-06-04T21:49:48.298Z,22.20
2018-06-04T21:52:17.017Z,23.67
2018-06-04T21:54:45.689Z,19.87
2018-06-04T21:57:14.381Z,26.45
2018-06-04T21:59:43.069Z,23.45
2018-06-04T22:02:11.438Z,23.03
2018-06-04T22:04:40.108Z,25.75
2018-06-04T22:07:08.791Z,25.40
2018-06-04T22:09:37.477Z,26.12
2018-06-04T22:12:06.656Z,26.87
2018-06-04T22:14:35.352Z,27.33
2018-06-04T22:17:04.081Z,26.97
2018-06-04T22:19:32.779Z,26.90
2018-06-04T22:22:01.112Z,24.53
2018-06-04T22:24:29.432Z,24.43
2018-06-04T22:26:58.114Z,26.07
2018-06-04T22:29:26.933Z,27.47
2018-06-04T22:31:55.609Z,26.17
2018-06-04T22:34:24.319Z,29.63
2018-06-04T22:36:53.032Z,31.03
2018-06-04T22:39:21.713Z,27.33
2018-06-04T22:41:50.408Z,32.13
2018-06-04T22:44:19.118Z,25.80
2018-06-04T22:46:48.187Z,29.33
2018-06-04T22:49:17.044Z,30.60
2018-06-04T22:51:45.847Z,30.53
2018-06-04T22:54:14.560Z,28.50
2018-06-04T22:56:43.231Z,34.17
2018-06-04T22:59:12.010Z,30.93
2018-06-04T23:01:40.859Z,33.40
2018-06-04T23:04:09.717Z,27.03
2018-06-04T23:06:38.431Z,29.10
2018-06-04T23:09:08.257Z,27.67
2018-06-04T23:11:36.585Z,32.27
2018-06-04T23:14:05.320Z,24.90
2018-06-04T23:16:34.084Z,23.57
2018-06-04T23:19:02.864Z,27.60
2018-06-04T23:21:31.601Z,29.47
2018-06-04T23:24:00.285Z,27.93
2018-06-04T23:26:29.055Z,23.57
2018-06-04T23:28:57.761Z,28.63
2018-06-04T23:31:26.101Z,26.03
2018-06-04T23:33:54.790Z,26.00
2018-06-04T23:36:23.510Z,25.73
2018-06-04T23:38:52.242Z,26.03
2018-06-04T23:41:20.966Z,21.83
2018-06-04T23:43:49.665Z,23.90
2018-06-04T23:46:18.349Z,23.23
2018-06-04T23:48:47.061Z,22.83
2018-06-04T23:51:15.940Z,27.93
2018-06-04T23:53:44.805Z,29.37
2018-06-04T23:56:13.532Z,26.87
2018-06-04T23:58:42.294Z,24.47
